Time;durP1;ratioP1;P1;durP2;ratioP2;P2;SDS_P1;SDS_P2;PMS_P1;PMS_P2;Temp;Humidity;BMP_temperature;BMP_pressure;BME280_temperature;BME280_humidity;BME280_pressure;Samples;Min_cycle;Max_cycle;Signal;HPM_P1;HPM_P2
2023/04/24 00:01:43;;;;;;;16.95;12.88;;;13.50;99.90;;;;;;5034915;28;20448;-73
2023/04/24 00:04:10;;;;;;;17.48;12.85;;;13.50;99.90;;;;;;5035437;28;20033;-72
2023/04/24 00:06:37;;;;;;;15.40;12.40;;;13.40;99.90;;;;;;5035878;28;20091;-72
2023/04/24 00:09:03;;;;;;;17.02;12.55;;;13.40;99.90;;;;;;5035875;28;20022;-72
2023/04/24 00:11:29;;;;;;;15.52;12.30;;;13.10;99.90;;;;;;5035897;28;20368;-72
2023/04/24 00:13:56;;;;;;;19.45;11.63;;;12.90;99.90;;;;;;5023867;28;20029;-72
2023/04/24 00:16:23;;;;;;;14.57;9.65;;;12.70;99.90;;;;;;5019756;28;20026;-72
2023/04/24 00:18:48;;;;;;;15.45;10.30;;;12.40;99.90;;;;;;5014276;28;20488;-72
2023/04/24 00:21:17;;;;;;;14.10;10.65;;;12.40;99.90;;;;;;5015871;28;20026;-72
2023/04/24 00:23:43;;;;;;;13.10;8.55;;;12.40;99.90;;;;;;5021504;28;20022;-72
2023/04/24 00:26:09;;;;;;;11.55;8.75;;;12.40;99.90;;;;;;5034347;28;20539;-72
2023/04/24 00:28:35;;;;;;;13.88;8.35;;;12.70;99.90;;;;;;5035553;28;20125;-72
2023/04/24 00:31:01;;;;;;;13.07;8.75;;;12.70;99.90;;;;;;5026861;28;20096;-73
2023/04/24 00:33:26;;;;;;;13.43;9.50;;;12.80;99.90;;;;;;5015613;28;20028;-72
2023/04/24 00:35:52;;;;;;;16.73;9.80;;;12.80;99.90;;;;;;5015639;28;20164;-72
2023/04/24 00:38:18;;;;;;;12.80;9.27;;;12.80;99.90;;;;;;5015396;28;20026;-72
2023/04/24 00:40:44;;;;;;;12.88;9.77;;;13.00;99.90;;;;;;5014953;28;20104;-72
2023/04/24 00:43:10;;;;;;;14.32;9.32;;;12.80;99.90;;;;;;5015624;28;20026;-72
2023/04/24 00:45:36;;;;;;;15.05;9.75;;;12.50;99.90;;;;;;5033973;28;20073;-72
2023/04/24 00:48:02;;;;;;;15.52;10.20;;;12.40;99.90;;;;;;5035189;28;20057;-72
2023/04/24 00:50:29;;;;;;;14.00;10.57;;;12.40;99.90;;;;;;5035023;28;20523;-72
2023/04/24 00:52:54;;;;;;;16.80;9.80;;;12.50;99.90;;;;;;5028817;28;20079;-72
2023/04/24 00:55:20;;;;;;;14.82;10.35;;;12.70;99.90;;;;;;5015273;28;20430;-72
2023/04/24 00:57:47;;;;;;;15.75;10.35;;;12.90;99.90;;;;;;5014973;28;20500;-72
2023/04/24 01:00:14;;;;;;;15.38;10.65;;;13.00;99.90;;;;;;5015138;28;20068;-72
2023/04/24 01:02:44;;;;;;;13.95;10.05;;;12.90;99.90;;;;;;5014777;28;20040;-73
2023/04/24 01:05:14;;;;;;;12.98;9.35;;;12.90;99.90;;;;;;5034442;28;20030;-72
2023/04/24 01:07:45;;;;;;;16.17;11.32;;;12.70;99.90;;;;;;5034440;28;20164;-72
2023/04/24 01:10:11;;;;;;;14.25;10.32;;;12.60;99.90;;;;;;5034695;28;20029;-72
2023/04/24 01:12:37;;;;;;;17.08;11.57;;;12.50;99.90;;;;;;5034940;28;20030;-72
2023/04/24 01:15:03;;;;;;;15.73;10.95;;;12.50;99.90;;;;;;5034798;28;20033;-72
2023/04/24 01:17:29;;;;;;;14.82;10.65;;;12.70;99.90;;;;;;5034576;28;20048;-73
2023/04/24 01:19:56;;;;;;;17.52;10.82;;;12.70;99.90;;;;;;5034501;28;20376;-72
2023/04/24 01:22:22;;;;;;;18.20;12.90;;;12.30;99.90;;;;;;5034474;28;20021;-72
2023/04/24 01:24:48;;;;;;;14.68;10.70;;;12.40;99.90;;;;;;5033299;28;20418;-72
2023/04/24 01:27:14;;;;;;;12.60;9.52;;;12.60;99.90;;;;;;5034567;28;20040;-72
2023/04/24 01:29:40;;;;;;;14.20;10.45;;;12.70;99.90;;;;;;5034562;28;20487;-72
2023/04/24 01:32:06;;;;;;;17.33;12.02;;;12.60;99.90;;;;;;5034442;28;20057;-72
2023/04/24 01:34:33;;;;;;;20.10;12.95;;;12.60;99.90;;;;;;5034589;28;20522;-72
2023/04/24 01:36:59;;;;;;;17.65;13.13;;;12.60;99.90;;;;;;5033950;28;20025;-72
2023/04/24 01:39:25;;;;;;;19.15;13.38;;;12.60;99.90;;;;;;5033199;28;20029;-72
2023/04/24 01:41:52;;;;;;;15.07;11.57;;;12.60;99.90;;;;;;5032990;28;20068;-73
2023/04/24 01:44:18;;;;;;;16.33;11.98;;;12.50;99.90;;;;;;5014526;28;20046;-72
2023/04/24 01:46:44;;;;;;;14.40;11.15;;;12.60;99.90;;;;;;5014169;28;20048;-72
2023/04/24 01:49:10;;;;;;;17.98;12.98;;;12.60;99.90;;;;;;5019672;28;20033;-72
2023/04/24 01:51:36;;;;;;;19.98;12.93;;;12.50;99.90;;;;;;5033432;28;20040;-72
2023/04/24 01:54:01;;;;;;;17.08;12.55;;;12.30;99.90;;;;;;5020742;28;20033;-72
2023/04/24 01:56:29;;;;;;;17.10;12.15;;;12.30;99.90;;;;;;5013528;28;20034;-72
2023/04/24 01:58:57;;;;;;;17.17;12.20;;;12.40;99.90;;;;;;5014308;28;20489;-72
2023/04/24 02:01:24;;;;;;;18.30;11.60;;;12.20;99.90;;;;;;5014161;28;20030;-72
2023/04/24 02:03:50;;;;;;;14.57;10.82;;;12.30;99.90;;;;;;5013947;28;20033;-72
2023/04/24 02:06:15;;;;;;;12.95;9.35;;;12.40;99.90;;;;;;5013788;28;20419;-72
2023/04/24 02:08:41;;;;;;;14.50;9.82;;;12.30;99.90;;;;;;5013725;28;20072;-72
2023/04/24 02:11:09;;;;;;;12.57;9.75;;;12.40;99.90;;;;;;5033144;28;20483;-72
2023/04/24 02:13:35;;;;;;;12.65;9.32;;;12.40;99.90;;;;;;5033694;28;20032;-73
2023/04/24 02:16:01;;;;;;;12.30;8.50;;;12.40;99.90;;;;;;5033471;28;20395;-72
2023/04/24 02:18:26;;;;;;;14.50;8.30;;;12.40;99.90;;;;;;5033340;28;20030;-72
2023/04/24 02:20:52;;;;;;;14.98;8.88;;;12.40;99.90;;;;;;5033443;28;20029;-72
2023/04/24 02:23:18;;;;;;;14.60;8.85;;;12.40;99.90;;;;;;5033587;28;20029;-72
2023/04/24 02:25:44;;;;;;;12.65;8.93;;;12.40;99.90;;;;;;5033102;28;20423;-72
2023/04/24 02:28:09;;;;;;;12.60;8.88;;;12.30;99.90;;;;;;5033314;28;20530;-72
2023/04/24 02:30:35;;;;;;;13.13;9.25;;;12.40;99.90;;;;;;5032159;28;20480;-73
2023/04/24 02:33:01;;;;;;;13.95;8.27;;;12.50;99.90;;;;;;5033072;28;20033;-72
2023/04/24 02:35:26;;;;;;;12.35;8.75;;;12.40;99.90;;;;;;5030769;28;20029;-72
2023/04/24 02:37:52;;;;;;;15.52;9.50;;;12.40;99.90;;;;;;5012830;28;20036;-73
2023/04/24 02:40:18;;;;;;;11.48;8.52;;;12.20;99.90;;;;;;5013705;28;20018;-73
2023/04/24 02:42:43;;;;;;;15.80;9.98;;;12.30;99.90;;;;;;5013684;28;20099;-72
2023/04/24 02:45:09;;;;;;;15.07;9.07;;;12.50;99.90;;;;;;5021637;28;20557;-72
2023/04/24 02:47:35;;;;;;;13.63;8.35;;;12.60;99.90;;;;;;5030946;28;20419;-72
2023/04/24 02:50:02;;;;;;;12.57;9.00;;;12.50;99.90;;;;;;5033324;28;20032;-72
2023/04/24 02:52:28;;;;;;;13.88;10.20;;;12.50;99.90;;;;;;5033515;28;20077;-72
2023/04/24 02:54:54;;;;;;;19.27;13.65;;;12.50;99.90;;;;;;5033077;28;20492;-72
2023/04/24 02:57:19;;;;;;;20.33;15.23;;;12.60;99.90;;;;;;5033020;28;20456;-72
2023/04/24 02:59:45;;;;;;;22.15;17.00;;;12.60;99.90;;;;;;5032980;28;20252;-72
2023/04/24 03:02:11;;;;;;;22.20;17.40;;;12.70;99.90;;;;;;5032159;28;20029;-71
2023/04/24 03:04:36;;;;;;;27.95;15.85;;;12.60;99.90;;;;;;5023057;28;20724;-71
2023/04/24 03:07:02;;;;;;;21.75;16.30;;;12.60;99.90;;;;;;5026642;28;20033;-70
2023/04/24 03:09:27;;;;;;;26.35;15.07;;;12.60;99.90;;;;;;5026779;28;20249;-71
2023/04/24 03:11:53;;;;;;;15.15;12.20;;;12.70;99.90;;;;;;5026628;28;20025;-71
2023/04/24 03:14:19;;;;;;;13.32;10.70;;;12.70;99.90;;;;;;5025390;28;20041;-71
2023/04/24 03:16:45;;;;;;;16.50;11.25;;;12.80;99.90;;;;;;5023909;28;20025;-71
2023/04/24 03:19:10;;;;;;;16.52;11.30;;;12.80;99.90;;;;;;5004147;28;20117;-71
2023/04/24 03:21:40;;;;;;;18.25;12.88;;;12.80;99.90;;;;;;5004833;28;20034;-71
2023/04/24 03:24:12;;;;;;;20.25;13.75;;;12.80;99.90;;;;;;5007600;28;20030;-71
2023/04/24 03:26:37;;;;;;;28.73;14.30;;;12.70;99.90;;;;;;5010404;28;20236;-71
2023/04/24 03:29:03;;;;;;;17.25;12.10;;;12.60;99.90;;;;;;5007382;28;20108;-71
2023/04/24 03:31:29;;;;;;;20.75;12.55;;;12.40;99.90;;;;;;5007618;28;20021;-71
2023/04/24 03:33:54;;;;;;;19.52;13.65;;;12.30;99.90;;;;;;5007996;28;20453;-71
2023/04/24 03:36:20;;;;;;;18.30;13.45;;;12.40;99.90;;;;;;5027012;28;20065;-71
2023/04/24 03:38:46;;;;;;;20.80;13.70;;;12.50;99.90;;;;;;5027061;28;20117;-71
2023/04/24 03:41:12;;;;;;;17.33;12.98;;;12.50;99.90;;;;;;5027313;28;20052;-71
2023/04/24 03:43:38;;;;;;;22.25;15.25;;;12.50;99.90;;;;;;5027422;28;20379;-71
2023/04/24 03:46:04;;;;;;;20.17;14.82;;;12.50;99.90;;;;;;5026483;28;20041;-72
2023/04/24 03:48:30;;;;;;;21.27;14.43;;;12.50;99.90;;;;;;5027158;28;20112;-71
2023/04/24 03:50:55;;;;;;;19.45;14.35;;;12.60;99.90;;;;;;5027027;28;20277;-71
2023/04/24 03:53:21;;;;;;;18.15;12.75;;;12.60;99.90;;;;;;5026984;28;20030;-71
2023/04/24 03:55:47;;;;;;;22.58;12.35;;;12.50;99.90;;;;;;5027008;28;20472;-71
2023/04/24 03:58:15;;;;;;;20.15;12.63;;;12.60;99.90;;;;;;5026968;28;20025;-71
2023/04/24 04:00:41;;;;;;;18.40;13.05;;;12.60;99.90;;;;;;5027361;28;20530;-71
2023/04/24 04:03:07;;;;;;;18.45;13.32;;;12.50;99.90;;;;;;5028186;28;20021;-71
2023/04/24 04:05:32;;;;;;;18.77;11.90;;;12.40;99.90;;;;;;5027521;28;20491;-71
2023/04/24 04:07:58;;;;;;;18.48;11.60;;;12.40;99.90;;;;;;5027061;28;20026;-71
2023/04/24 04:10:23;;;;;;;18.38;12.52;;;12.30;99.90;;;;;;5027166;28;20041;-71
2023/04/24 04:12:49;;;;;;;15.10;9.70;;;12.40;99.90;;;;;;5027665;28;20033;-72
2023/04/24 04:15:15;;;;;;;17.73;11.65;;;12.30;99.90;;;;;;5025396;28;20480;-71
2023/04/24 04:17:41;;;;;;;15.75;10.57;;;12.30;99.90;;;;;;5023459;28;20033;-71
2023/04/24 04:20:09;;;;;;;15.00;10.20;;;12.10;99.90;;;;;;5027736;28;20026;-71
2023/04/24 04:22:36;;;;;;;13.70;9.95;;;12.10;99.90;;;;;;5026609;28;20028;-73
2023/04/24 04:25:02;;;;;;;15.52;9.13;;;12.10;99.90;;;;;;5023187;28;20666;-73
2023/04/24 04:27:31;;;;;;;14.98;8.88;;;12.10;99.90;;;;;;5008558;28;20112;-73
2023/04/24 04:30:04;;;;;;;14.68;9.63;;;12.10;99.90;;;;;;5008451;28;20105;-73
2023/04/24 04:32:34;;;;;;;15.95;11.00;;;12.20;99.90;;;;;;5014280;28;20097;-73
2023/04/24 04:35:04;;;;;;;18.23;12.95;;;12.20;99.90;;;;;;5008023;28;20036;-72
2023/04/24 04:37:31;;;;;;;16.10;10.88;;;12.30;99.90;;;;;;5007865;28;20121;-73
2023/04/24 04:39:59;;;;;;;15.20;10.52;;;12.30;99.90;;;;;;5007587;28;20432;-73
2023/04/24 04:42:29;;;;;;;15.52;11.45;;;12.20;99.90;;;;;;5007978;28;20026;-73
2023/04/24 04:44:55;;;;;;;15.93;9.55;;;12.30;99.90;;;;;;5022133;28;20042;-73
2023/04/24 04:47:23;;;;;;;14.25;9.98;;;12.20;99.90;;;;;;5027420;28;20034;-73
2023/04/24 04:49:48;;;;;;;20.90;11.02;;;12.10;99.90;;;;;;5027046;28;20064;-73
2023/04/24 04:52:15;;;;;;;13.80;10.27;;;12.10;99.90;;;;;;5027931;28;20064;-73
2023/04/24 04:54:41;;;;;;;10.40;7.82;;;12.00;99.90;;;;;;5027739;28;20424;-73
2023/04/24 04:57:06;;;;;;;12.27;8.70;;;12.00;99.90;;;;;;5027384;28;20052;-73
2023/04/24 04:59:32;;;;;;;13.52;8.55;;;12.10;99.90;;;;;;5028048;28;20033;-73
2023/04/24 05:01:58;;;;;;;17.38;9.73;;;12.10;99.90;;;;;;5028063;28;20483;-73
2023/04/24 05:04:23;;;;;;;10.93;6.32;;;12.10;99.90;;;;;;5027930;28;20033;-73
2023/04/24 05:06:51;;;;;;;9.02;6.40;;;12.10;99.90;;;;;;5015323;28;20088;-73
2023/04/24 05:09:16;;;;;;;9.15;5.70;;;12.00;99.90;;;;;;5017671;28;20052;-73
2023/04/24 05:11:42;;;;;;;4.65;2.20;;;11.50;99.90;;;;;;5026158;28;20033;-73
2023/04/24 05:14:07;;;;;;;3.58;1.48;;;11.20;99.90;;;;;;5027674;28;20391;-73
2023/04/24 05:16:33;;;;;;;4.43;1.35;;;10.90;99.90;;;;;;5012105;28;20128;-72
2023/04/24 05:18:59;;;;;;;3.55;1.40;;;10.80;99.90;;;;;;5007910;28;20030;-73
2023/04/24 05:21:25;;;;;;;3.80;1.48;;;10.80;99.90;;;;;;5007995;28;20026;-72
2023/04/24 05:23:50;;;;;;;1.92;0.93;;;11.00;99.90;;;;;;5007625;28;20030;-72
2023/04/24 05:26:17;;;;;;;1.90;0.70;;;10.80;99.90;;;;;;5007882;28;20037;-73
2023/04/24 05:28:43;;;;;;;2.80;0.60;;;10.70;99.90;;;;;;5007927;28;20939;-72
2023/04/24 05:31:08;;;;;;;1.90;0.50;;;10.60;99.90;;;;;;5013652;28;20059;-73
2023/04/24 05:33:34;;;;;;;2.30;0.65;;;10.20;99.90;;;;;;5027265;28;20041;-72
2023/04/24 05:36:00;;;;;;;0.52;0.15;;;10.40;99.90;;;;;;5027006;28;20392;-72
2023/04/24 05:38:25;;;;;;;1.50;0.32;;;10.00;99.90;;;;;;5027616;28;20076;-73
2023/04/24 05:40:51;;;;;;;1.85;0.30;;;10.10;99.90;;;;;;5026992;28;20147;-72
2023/04/24 05:43:17;;;;;;;0.98;0.30;;;10.10;99.90;;;;;;5027001;28;20434;-72
2023/04/24 05:45:42;;;;;;;1.70;0.32;;;10.20;99.90;;;;;;5026960;28;20041;-72
2023/04/24 05:48:08;;;;;;;2.00;0.25;;;10.30;99.90;;;;;;5026987;28;20531;-73
2023/04/24 05:50:34;;;;;;;0.57;0.15;;;10.10;99.90;;;;;;5027262;28;20025;-72
2023/04/24 05:53:01;;;;;;;1.48;0.22;;;10.10;99.90;;;;;;5026725;28;20025;-72
2023/04/24 05:55:27;;;;;;;1.67;0.10;;;10.30;99.90;;;;;;5025744;28;20075;-72
2023/04/24 05:57:53;;;;;;;0.80;0.20;;;10.20;99.90;;;;;;5006481;28;20615;-72
2023/04/24 06:00:19;;;;;;;0.75;0.52;;;10.20;99.90;;;;;;5006243;28;20376;-73
2023/04/24 06:02:46;;;;;;;1.20;0.45;;;10.20;99.90;;;;;;5007107;28;20393;-72
2023/04/24 06:05:11;;;;;;;0.82;0.28;;;10.40;99.90;;;;;;5008686;28;20033;-73
2023/04/24 06:07:37;;;;;;;1.23;0.35;;;10.20;99.90;;;;;;5026426;28;20052;-72
2023/04/24 06:10:03;;;;;;;2.15;0.57;;;10.30;99.90;;;;;;5026417;28;20060;-72
2023/04/24 06:12:29;;;;;;;0.98;0.30;;;10.40;99.90;;;;;;5026792;28;20020;-72
2023/04/24 06:14:55;;;;;;;1.05;0.38;;;10.30;99.90;;;;;;5011779;28;20069;-72
2023/04/24 06:17:21;;;;;;;1.95;1.15;;;10.10;99.90;;;;;;5006552;28;20022;-72
2023/04/24 06:19:47;;;;;;;2.72;0.30;;;10.20;99.90;;;;;;5006766;28;20029;-73
2023/04/24 06:22:13;;;;;;;1.55;0.60;;;10.10;99.90;;;;;;5006194;28;20116;-72
2023/04/24 06:24:40;;;;;;;2.40;0.45;;;10.20;99.90;;;;;;5006283;28;20049;-72
2023/04/24 06:27:05;;;;;;;0.35;0.30;;;10.30;99.90;;;;;;5006516;28;20596;-73
2023/04/24 06:29:31;;;;;;;3.65;0.65;;;10.20;99.90;;;;;;5006394;28;20142;-73
2023/04/24 06:31:57;;;;;;;1.70;1.10;;;10.10;99.90;;;;;;5019022;28;20480;-72
2023/04/24 06:34:23;;;;;;;2.10;0.38;;;10.10;99.90;;;;;;5021801;28;20110;-72
2023/04/24 06:36:48;;;;;;;2.45;0.30;;;10.00;99.90;;;;;;5016832;28;20109;-72
2023/04/24 06:39:14;;;;;;;1.35;0.80;;;10.10;99.90;;;;;;5017442;28;20029;-73
2023/04/24 06:41:40;;;;;;;0.90;0.20;;;9.90;99.90;;;;;;5022452;28;20041;-73
2023/04/24 06:44:06;;;;;;;2.10;0.50;;;10.10;99.90;;;;;;5025659;28;20050;-73
2023/04/24 06:46:31;;;;;;;1.55;0.30;;;10.10;99.90;;;;;;5024468;28;20124;-72
2023/04/24 06:48:57;;;;;;;1.88;0.57;;;10.10;99.90;;;;;;5016429;28;20637;-73
2023/04/24 06:51:24;;;;;;;1.75;0.50;;;10.20;99.90;;;;;;5005881;28;20058;-72
2023/04/24 06:53:51;;;;;;;0.55;0.20;;;10.20;99.90;;;;;;5009031;28;20119;-73
2023/04/24 06:56:16;;;;;;;0.60;0.20;;;10.20;99.90;;;;;;5025772;28;20109;-72
2023/04/24 06:58:42;;;;;;;0.45;0.20;;;10.10;99.90;;;;;;5025871;28;20224;-73
2023/04/24 07:01:08;;;;;;;0.03;0.00;;;10.10;99.90;;;;;;5025697;28;20101;-73
2023/04/24 07:03:33;;;;;;;2.13;0.50;;;10.20;99.90;;;;;;5025470;28;20029;-73
2023/04/24 07:05:59;;;;;;;0.68;0.10;;;10.10;99.90;;;;;;5022839;28;20049;-72
2023/04/24 07:08:25;;;;;;;0.00;0.00;;;10.20;99.90;;;;;;5006071;28;20025;-72
2023/04/24 07:10:51;;;;;;;0.82;0.10;;;10.20;99.90;;;;;;5026931;28;20068;-73
2023/04/24 07:13:17;;;;;;;0.00;0.00;;;10.20;99.90;;;;;;5028645;28;20116;-72
2023/04/24 07:15:43;;;;;;;0.00;0.00;;;10.30;99.90;;;;;;5028783;28;20357;-72
2023/04/24 07:18:09;;;;;;;2.75;0.70;;;10.20;99.90;;;;;;5028395;28;20032;-72
2023/04/24 07:20:34;;;;;;;0.47;0.20;;;10.30;99.90;;;;;;5028305;28;20021;-72
2023/04/24 07:23:00;;;;;;;0.10;0.08;;;10.20;99.90;;;;;;5028582;28;20029;-72
2023/04/24 07:25:26;;;;;;;0.10;0.00;;;10.10;99.90;;;;;;5027204;28;20037;-73
2023/04/24 07:27:52;;;;;;;1.95;0.63;;;10.20;99.90;;;;;;5028309;28;20026;-73
2023/04/24 07:30:18;;;;;;;1.42;0.55;;;10.20;99.90;;;;;;5028271;28;20061;-72
2023/04/24 07:32:44;;;;;;;0.73;0.17;;;10.10;99.90;;;;;;5028011;28;20057;-72
2023/04/24 07:35:09;;;;;;;0.00;0.00;;;10.20;99.90;;;;;;5030804;28;20041;-72
2023/04/24 07:37:36;;;;;;;0.47;0.30;;;10.30;99.90;;;;;;5031978;28;20064;-72
2023/04/24 07:40:02;;;;;;;0.95;0.10;;;10.30;99.90;;;;;;5032197;28;20022;-72
2023/04/24 07:42:30;;;;;;;0.60;0.10;;;10.40;99.90;;;;;;5030241;28;20541;-72
2023/04/24 07:44:55;;;;;;;1.85;0.95;;;10.30;99.90;;;;;;5012199;28;20041;-72
2023/04/24 07:47:21;;;;;;;0.65;0.25;;;10.40;99.90;;;;;;5011572;28;20057;-72
2023/04/24 07:49:47;;;;;;;0.32;0.10;;;10.30;99.90;;;;;;5011626;28;20050;-72
2023/04/24 07:52:13;;;;;;;0.08;0.08;;;10.30;99.90;;;;;;5012078;28;20037;-72
2023/04/24 07:54:38;;;;;;;0.30;0.10;;;10.30;99.90;;;;;;5011710;28;20030;-72
2023/04/24 07:57:06;;;;;;;3.30;0.77;;;10.50;99.90;;;;;;5012367;28;20058;-72
2023/04/24 07:59:32;;;;;;;0.25;0.00;;;10.60;99.90;;;;;;5012557;28;20042;-72
2023/04/24 08:01:57;;;;;;;0.20;0.10;;;10.40;99.90;;;;;;5016425;28;20029;-72
2023/04/24 08:04:23;;;;;;;0.30;0.10;;;10.30;99.90;;;;;;5015557;28;20022;-72
2023/04/24 08:06:49;;;;;;;0.73;0.20;;;10.40;99.90;;;;;;5011210;28;20037;-73
2023/04/24 08:09:14;;;;;;;0.77;0.30;;;10.40;99.90;;;;;;5027642;28;20017;-73
2023/04/24 08:11:40;;;;;;;0.57;0.30;;;10.50;99.90;;;;;;5029514;28;20021;-73
2023/04/24 08:14:06;;;;;;;1.75;1.38;;;10.60;99.90;;;;;;5029721;28;20110;-73
2023/04/24 08:16:32;;;;;;;1.02;0.40;;;10.60;99.90;;;;;;5027463;28;20022;-73
2023/04/24 08:18:58;;;;;;;2.10;0.98;;;10.80;99.90;;;;;;5011094;28;20034;-73
2023/04/24 08:21:26;;;;;;;1.67;0.50;;;10.70;99.90;;;;;;5023617;28;20028;-73
2023/04/24 08:23:52;;;;;;;0.73;0.32;;;10.60;99.90;;;;;;5029604;28;20041;-73
2023/04/24 08:26:18;;;;;;;1.48;0.40;;;10.40;99.90;;;;;;5011048;28;20146;-73
2023/04/24 08:28:44;;;;;;;1.02;0.30;;;10.50;99.90;;;;;;5011229;28;20159;-73
2023/04/24 08:31:09;;;;;;;0.93;0.30;;;10.60;99.90;;;;;;5010932;28;20403;-73
2023/04/24 08:33:35;;;;;;;0.95;0.43;;;10.80;99.90;;;;;;5012618;28;20025;-73
2023/04/24 08:36:03;;;;;;;3.67;0.32;;;10.80;99.90;;;;;;5029079;28;20036;-72
2023/04/24 08:38:29;;;;;;;1.08;0.22;;;10.90;99.90;;;;;;5029195;28;20067;-73
2023/04/24 08:40:56;;;;;;;0.57;0.10;;;10.90;99.90;;;;;;5029293;28;20025;-73
2023/04/24 08:43:22;;;;;;;0.20;0.10;;;11.00;99.90;;;;;;5010824;28;20022;-73
2023/04/24 08:45:48;;;;;;;0.57;0.20;;;11.20;99.90;;;;;;5009076;28;20046;-73
2023/04/24 08:48:15;;;;;;;3.05;0.30;;;11.00;99.90;;;;;;5010888;28;20119;-73
2023/04/24 08:50:42;;;;;;;0.30;0.15;;;11.20;99.90;;;;;;5022247;28;20038;-72
2023/04/24 08:53:08;;;;;;;0.60;0.10;;;11.30;99.90;;;;;;5031077;28;20029;-73
2023/04/24 08:55:35;;;;;;;0.00;0.00;;;11.40;99.90;;;;;;5017594;28;20040;-73
2023/04/24 08:58:02;;;;;;;0.55;0.32;;;11.50;99.90;;;;;;5030598;28;20113;-73
2023/04/24 09:00:29;;;;;;;1.25;0.15;;;11.50;99.90;;;;;;5030557;28;20037;-73
2023/04/24 09:02:55;;;;;;;0.05;0.05;;;11.70;99.90;;;;;;5030645;28;20040;-73
2023/04/24 09:05:23;;;;;;;0.93;0.17;;;11.80;99.90;;;;;;5029178;28;20034;-73
2023/04/24 09:07:56;;;;;;;0.52;0.20;;;11.90;99.90;;;;;;5029953;28;20037;-73
2023/04/24 09:10:24;;;;;;;2.65;0.43;;;12.00;99.90;;;;;;5011982;28;20033;-73
2023/04/24 09:12:53;;;;;;;0.52;0.20;;;11.90;99.90;;;;;;5010652;28;20026;-73
2023/04/24 09:15:20;;;;;;;0.25;0.10;;;12.20;99.90;;;;;;5024008;28;20113;-73
2023/04/24 09:17:46;;;;;;;0.45;0.25;;;12.40;99.90;;;;;;5030471;28;20032;-71
2023/04/24 09:20:12;;;;;;;0.68;0.17;;;12.60;99.90;;;;;;5030517;28;20035;-73
2023/04/24 09:22:38;;;;;;;3.28;1.77;;;12.60;99.90;;;;;;5029113;28;20043;-73
2023/04/24 09:25:07;;;;;;;3.70;1.60;;;12.90;99.90;;;;;;5029904;28;20025;-72
2023/04/24 09:27:33;;;;;;;4.70;2.50;;;13.00;99.90;;;;;;5029706;28;20431;-73
2023/04/24 09:30:00;;;;;;;2.58;1.20;;;13.00;99.90;;;;;;5028543;28;20033;-73
2023/04/24 09:32:26;;;;;;;2.53;1.45;;;12.80;99.90;;;;;;5013458;28;20437;-73
2023/04/24 09:35:12;;;;;;;4.20;1.98;;;12.90;99.90;;;;;;5013770;28;20033;-73
2023/04/24 09:37:48;;;;;;;12.30;6.63;;;13.00;99.90;;;;;;5029983;28;20112;-73
2023/04/24 09:40:21;;;;;;;13.88;9.82;;;13.10;99.90;;;;;;5029579;28;20365;-73
2023/04/24 09:42:56;;;;;;;2.30;1.60;;;13.20;99.90;;;;;;5028417;28;20039;-73
2023/04/24 09:45:27;;;;;;;3.88;1.77;;;13.10;99.90;;;;;;5027873;28;20128;-72
2023/04/24 09:47:55;;;;;;;3.22;0.98;;;13.10;99.90;;;;;;5020280;28;20040;-73
2023/04/24 09:50:21;;;;;;;0.80;0.30;;;13.10;99.90;;;;;;5009863;28;20022;-73
2023/04/24 09:53:01;;;;;;;1.35;0.40;;;13.00;99.90;;;;;;5010305;28;20330;-73
2023/04/24 09:55:27;;;;;;;5.80;3.17;;;12.90;99.90;;;;;;5010272;28;20573;-73
2023/04/24 09:57:59;;;;;;;3.60;1.80;;;13.00;99.90;;;;;;5009968;28;20033;-73
2023/04/24 10:00:30;;;;;;;0.98;0.30;;;13.00;99.90;;;;;;5010105;28;20033;-73
2023/04/24 10:03:08;;;;;;;0.47;0.17;;;13.10;99.90;;;;;;5009408;28;20065;-73
2023/04/24 10:05:35;;;;;;;2.00;0.25;;;13.30;99.90;;;;;;5010016;28;20109;-73
2023/04/24 10:08:03;;;;;;;0.20;0.13;;;13.50;99.90;;;;;;5009651;28;20053;-73
2023/04/24 10:10:29;;;;;;;0.50;0.05;;;13.60;99.90;;;;;;5009671;28;20033;-73
2023/04/24 10:12:55;;;;;;;0.55;0.20;;;13.50;99.90;;;;;;5009935;28;20046;-73
2023/04/24 10:15:21;;;;;;;1.23;0.20;;;13.50;99.90;;;;;;5009676;28;20030;-73
2023/04/24 10:17:53;;;;;;;1.42;0.45;;;13.70;99.90;;;;;;5009582;28;20030;-73
2023/04/24 10:20:24;;;;;;;0.43;0.22;;;13.50;99.90;;;;;;5009500;28;20472;-71
2023/04/24 10:22:52;;;;;;;0.75;0.10;;;13.60;99.90;;;;;;5014883;28;20029;-72
2023/04/24 10:25:22;;;;;;;0.43;0.15;;;13.70;99.90;;;;;;5020671;28;20061;-72
2023/04/24 10:27:49;;;;;;;0.55;0.13;;;13.70;99.90;;;;;;5009450;28;20037;-72
2023/04/24 10:30:16;;;;;;;0.00;0.00;;;13.70;99.90;;;;;;5028862;28;20033;-72
2023/04/24 10:32:41;;;;;;;1.33;0.20;;;13.60;99.90;;;;;;5025100;28;20029;-73
2023/04/24 10:35:09;;;;;;;0.40;0.10;;;13.70;99.90;;;;;;5022859;28;20033;-73
2023/04/24 10:37:41;;;;;;;0.57;0.20;;;13.60;99.90;;;;;;5024099;28;20093;-73
2023/04/24 10:40:09;;;;;;;0.50;0.20;;;13.80;99.90;;;;;;5021276;28;20030;-75
2023/04/24 10:42:39;;;;;;;0.38;0.25;;;13.90;99.90;;;;;;5022959;28;20120;-72
2023/04/24 10:45:06;;;;;;;1.00;0.30;;;13.90;99.90;;;;;;5013752;28;20444;-73
2023/04/24 10:47:41;;;;;;;1.40;0.15;;;14.00;99.90;;;;;;5024187;28;20037;-73
2023/04/24 10:50:10;;;;;;;0.65;0.10;;;14.00;99.90;;;;;;5019170;28;20037;-73
2023/04/24 10:52:54;;;;;;;0.20;0.10;;;14.00;99.90;;;;;;5024579;28;20102;-73
2023/04/24 10:55:44;;;;;;;22.90;11.35;;;14.30;99.90;;;;;;5017059;28;20032;-73
2023/04/24 10:58:10;;;;;;;1.13;0.65;;;14.50;99.90;;;;;;5018620;28;20087;-72
2023/04/24 11:00:40;;;;;;;1.80;0.80;;;14.70;99.90;;;;;;5024957;28;20017;-74
2023/04/24 11:03:22;;;;;;;0.30;0.22;;;14.70;99.90;;;;;;5021177;28;20029;-73
2023/04/24 11:05:58;;;;;;;0.77;0.43;;;14.70;99.90;;;;;;5013849;28;20603;-72
2023/04/24 11:08:32;;;;;;;0.30;0.13;;;14.80;99.90;;;;;;5017546;28;20025;-74
2023/04/24 11:10:58;;;;;;;;;;;15.10;99.90;;;;;;5020420;28;20037;-75
2023/04/24 11:13:48;;;;;;;1.38;0.40;;;15.00;99.90;;;;;;5025164;28;20282;-75
2023/04/24 11:16:21;;;;;;;0.90;0.22;;;15.10;99.90;;;;;;5023608;28;20637;-73
2023/04/24 11:18:53;;;;;;;0.95;0.38;;;15.10;99.90;;;;;;5014325;28;20029;-75
2023/04/24 11:21:18;;;;;;;0.95;0.30;;;15.20;99.90;;;;;;5014212;28;20187;-72
2023/04/24 11:23:45;;;;;;;1.05;0.40;;;15.20;99.90;;;;;;5025378;28;20535;-74
2023/04/24 11:26:21;;;;;;;2.03;0.90;;;15.30;99.90;;;;;;5023009;28;20052;-72
2023/04/24 11:28:50;;;;;;;1.00;0.60;;;15.40;99.90;;;;;;5023771;28;20029;-73
2023/04/24 11:31:38;;;;;;;2.83;0.38;;;15.40;99.90;;;;;;5011619;28;20041;-76
2023/04/24 11:34:14;;;;;;;0.60;0.20;;;15.30;99.90;;;;;;5023969;28;20030;-72
2023/04/24 11:36:43;;;;;;;2.22;0.32;;;14.90;99.90;;;;;;5019523;28;20060;-75
2023/04/24 11:39:09;;;;;;;1.77;0.30;;;15.40;99.90;;;;;;5024882;28;20025;-75
2023/04/24 11:41:35;;;;;;;0.38;0.20;;;15.50;99.90;;;;;;5023615;28;20033;-72
2023/04/24 11:44:02;;;;;;;2.33;0.30;;;15.50;99.90;;;;;;5024212;28;20041;-73
2023/04/24 11:46:31;;;;;;;1.30;0.35;;;15.80;99.90;;;;;;5024730;28;20026;-72
2023/04/24 11:48:58;;;;;;;1.25;0.38;;;15.70;99.90;;;;;;5022677;28;20036;-75
2023/04/24 11:51:28;;;;;;;5.80;1.90;;;16.00;99.90;;;;;;5008561;28;20481;-73
2023/04/24 11:53:55;;;;;;;1.95;0.90;;;16.10;99.90;;;;;;5024841;28;20361;-73
2023/04/24 11:56:25;;;;;;;1.05;0.28;;;16.30;99.90;;;;;;5024754;28;20649;-75
2023/04/24 11:58:54;;;;;;;0.30;0.20;;;16.10;99.40;;;;;;5023983;28;20492;-76
2023/04/24 12:01:20;;;;;;;15.50;9.90;;;16.00;98.80;;;;;;5024461;28;20108;-75
2023/04/24 12:03:51;;;;;;;7.47;3.80;;;16.10;99.90;;;;;;5024338;28;20030;-75
2023/04/24 12:06:18;;;;;;;2.47;1.00;;;16.00;99.80;;;;;;5024277;28;20087;-75
2023/04/24 12:08:47;;;;;;;1.48;0.50;;;16.50;99.20;;;;;;5024483;28;20476;-73
2023/04/24 12:11:15;;;;;;;0.45;0.20;;;16.90;99.40;;;;;;5024196;28;20029;-73
2023/04/24 12:13:41;;;;;;;2.03;0.80;;;17.10;98.70;;;;;;5024542;28;20383;-73
2023/04/24 12:16:07;;;;;;;0.32;0.20;;;17.10;98.10;;;;;;5023156;28;20108;-73
2023/04/24 12:18:32;;;;;;;1.05;0.32;;;16.80;97.60;;;;;;5024446;28;20029;-74
2023/04/24 12:21:26;;;;;;;1.85;0.80;;;16.80;98.40;;;;;;5024942;28;20029;-76
2023/04/24 12:23:55;;;;;;;1.35;0.50;;;16.80;98.40;;;;;;5024514;28;20025;-74
2023/04/24 12:26:22;;;;;;;0.73;0.30;;;17.00;99.10;;;;;;5027448;28;20025;-72
2023/04/24 12:28:49;;;;;;;0.63;0.10;;;17.30;99.20;;;;;;5027316;28;20113;-75
2023/04/24 12:31:20;;;;;;;1.30;0.55;;;17.10;98.00;;;;;;5027888;28;20042;-74
2023/04/24 12:33:46;;;;;;;0.63;0.20;;;17.00;98.20;;;;;;5027462;28;20987;-72
2023/04/24 12:36:12;;;;;;;1.98;0.20;;;17.30;99.90;;;;;;5027483;28;20117;-73
2023/04/24 12:38:41;;;;;;;0.80;0.40;;;17.30;98.40;;;;;;5016448;28;20064;-73
2023/04/24 12:41:11;;;;;;;0.88;0.30;;;17.10;98.20;;;;;;5022239;28;20746;-76